createdAt,value
2022-09-24T00:01:43.970Z,10.51
2022-09-24T00:04:13.489Z,10.45
2022-09-24T00:06:43.359Z,10.46
2022-09-24T00:09:11.987Z,10.43
2022-09-24T00:11:40.597Z,10.40
2022-09-24T00:14:09.149Z,10.38
2022-09-24T00:16:37.427Z,10.38
2022-09-24T00:19:06.972Z,10.41
2022-09-24T00:21:36.671Z,10.33
2022-09-24T00:24:07.379Z,10.29
2022-09-24T00:26:49.907Z,10.33
2022-09-24T00:29:19.397Z,10.29
2022-09-24T00:31:47.774Z,10.32
2022-09-24T00:34:17.673Z,10.29
2022-09-24T00:36:46.230Z,10.34
2022-09-24T00:39:14.674Z,10.31
2022-09-24T00:41:47.242Z,10.31
2022-09-24T00:44:50.945Z,10.29
2022-09-24T00:47:29.955Z,10.27
2022-09-24T00:50:06.425Z,10.30
2022-09-24T00:52:35.118Z,10.28
2022-09-24T00:55:03.213Z,10.35
2022-09-24T00:57:31.747Z,10.38
2022-09-24T01:00:00.249Z,10.39
2022-09-24T01:02:28.394Z,10.36
2022-09-24T01:04:56.932Z,10.32
2022-09-24T01:07:26.532Z,10.27
2022-09-24T01:09:54.682Z,10.27
2022-09-24T01:12:28.419Z,10.22
2022-09-24T01:15:05.974Z,10.25
2022-09-24T01:17:38.277Z,10.28
2022-09-24T01:20:29.803Z,10.24
2022-09-24T01:23:15.401Z,10.26
2022-09-24T01:25:50.060Z,10.22
2022-09-24T01:28:35.356Z,10.19
2022-09-24T01:31:08.897Z,10.22
2022-09-24T01:33:37.716Z,10.22
2022-09-24T01:36:08.570Z,10.22
2022-09-24T01:38:39.857Z,10.19
2022-09-24T01:41:08.841Z,10.20
2022-09-24T01:43:38.491Z,10.21
2022-09-24T01:46:08.406Z,10.22
2022-09-24T01:48:37.550Z,10.18
2022-09-24T01:51:10.253Z,10.17
2022-09-24T01:53:42.629Z,10.16
2022-09-24T01:56:15.975Z,10.16
2022-09-24T01:58:48.671Z,10.14
2022-09-24T02:01:20.488Z,10.15
2022-09-24T02:03:52.718Z,10.11
2022-09-24T02:06:26.180Z,10.12
2022-09-24T02:08:57.616Z,10.10
2022-09-24T02:11:25.851Z,10.12
2022-09-24T02:13:56.983Z,10.11
2022-09-24T02:16:29.281Z,10.05
2022-09-24T02:18:59.321Z,10.10
2022-09-24T02:21:28.541Z,10.07
2022-09-24T02:24:06.673Z,10.07
2022-09-24T02:26:34.898Z,10.08
2022-09-24T02:29:03.133Z,10.09
2022-09-24T02:31:34.622Z,10.03
2022-09-24T02:34:23.667Z,9.96
2022-09-24T02:36:54.259Z,9.99
2022-09-24T02:39:22.637Z,9.94
2022-09-24T02:41:51.326Z,9.92
2022-09-24T02:44:19.797Z,9.90
2022-09-24T02:46:50.424Z,9.85
2022-09-24T02:49:18.883Z,9.83
2022-09-24T02:51:46.950Z,9.82
2022-09-24T02:54:15.006Z,9.84
2022-09-24T02:56:43.183Z,9.80
2022-09-24T02:59:12.282Z,9.82
2022-09-24T03:01:40.590Z,9.86
2022-09-24T03:04:10.452Z,9.83
2022-09-24T03:06:38.925Z,9.78
2022-09-24T03:09:07.141Z,9.79
2022-09-24T03:11:35.735Z,9.78
2022-09-24T03:14:03.712Z,9.77
2022-09-24T03:16:31.812Z,9.78
2022-09-24T03:18:59.874Z,9.79
2022-09-24T03:21:29.263Z,9.78
2022-09-24T03:23:57.218Z,9.79
2022-09-24T03:26:25.292Z,9.80
2022-09-24T03:28:53.720Z,9.80
2022-09-24T03:31:23.320Z,9.80
2022-09-24T03:33:51.839Z,9.80
2022-09-24T03:36:21.614Z,9.77
2022-09-24T03:38:52.619Z,9.79
2022-09-24T03:41:20.558Z,9.76
2022-09-24T03:43:48.508Z,9.81
2022-09-24T03:46:17.238Z,9.81
2022-09-24T03:48:47.236Z,9.87
2022-09-24T03:51:20.181Z,9.82
2022-09-24T03:53:49.019Z,9.78
2022-09-24T03:56:18.345Z,9.79
2022-09-24T03:58:47.614Z,9.80
2022-09-24T04:01:21.691Z,9.81
2022-09-24T04:03:50.415Z,9.81
2022-09-24T04:06:23.413Z,9.82
2022-09-24T04:08:54.045Z,9.82
2022-09-24T04:11:23.998Z,9.80
2022-09-24T04:13:52.440Z,9.75
2022-09-24T04:16:20.489Z,9.78
2022-09-24T04:18:48.812Z,9.73
2022-09-24T04:21:16.805Z,9.72
2022-09-24T04:23:44.890Z,9.73
2022-09-24T04:26:12.957Z,9.71
2022-09-24T04:28:42.393Z,9.71
2022-09-24T04:31:10.475Z,9.71
2022-09-24T04:33:38.457Z,9.70
2022-09-24T04:36:06.557Z,9.68
2022-09-24T04:38:34.703Z,9.69
2022-09-24T04:41:06.925Z,9.66
2022-09-24T04:43:36.846Z,9.66
2022-09-24T04:46:06.877Z,9.65
2022-09-24T04:48:38.379Z,9.65
2022-09-24T04:51:06.928Z,9.65
2022-09-24T04:53:36.721Z,9.66
2022-09-24T04:56:05.098Z,9.67
2022-09-24T04:58:33.321Z,9.65
2022-09-24T05:01:03.957Z,9.63
2022-09-24T05:03:33.329Z,9.63
2022-09-24T05:06:01.950Z,9.64
2022-09-24T05:08:30.010Z,9.64
2022-09-24T05:10:58.000Z,9.62
2022-09-24T05:13:26.213Z,9.63
2022-09-24T05:15:54.293Z,9.60
2022-09-24T05:18:22.498Z,9.59
2022-09-24T05:20:52.382Z,9.61
2022-09-24T05:23:20.470Z,9.62
2022-09-24T05:26:06.027Z,9.62
2022-09-24T05:28:35.289Z,9.62
2022-09-24T05:31:03.486Z,9.61
2022-09-24T05:33:31.637Z,9.60
2022-09-24T05:36:00.958Z,9.58
2022-09-24T05:38:29.960Z,9.60
2022-09-24T05:40:58.114Z,9.61
2022-09-24T05:43:27.749Z,9.62
2022-09-24T05:45:58.586Z,9.60
2022-09-24T05:48:26.949Z,9.63
2022-09-24T05:50:55.692Z,9.61
2022-09-24T05:53:25.621Z,9.62
2022-09-24T05:55:53.577Z,9.63
2022-09-24T05:58:21.611Z,9.62
2022-09-24T06:00:49.940Z,9.63
2022-09-24T06:03:19.739Z,9.61
2022-09-24T06:05:49.635Z,9.66
2022-09-24T06:08:18.119Z,9.68
2022-09-24T06:10:48.619Z,9.67
2022-09-24T06:13:18.469Z,9.69
2022-09-24T06:15:47.137Z,9.70
2022-09-24T06:18:15.284Z,9.73
2022-09-24T06:20:43.540Z,9.76
2022-09-24T06:23:11.951Z,9.81
2022-09-24T06:25:39.891Z,9.82
2022-09-24T06:28:09.340Z,9.86
2022-09-24T06:30:39.405Z,9.89
2022-09-24T06:33:09.791Z,9.95
2022-09-24T06:35:38.335Z,9.98
2022-09-24T06:38:07.275Z,10.04
2022-09-24T06:40:37.458Z,10.08
2022-09-24T06:43:06.684Z,10.15
2022-09-24T06:45:36.305Z,10.20
2022-09-24T06:48:05.894Z,10.22
2022-09-24T06:50:35.559Z,10.26
2022-09-24T06:53:06.427Z,10.33
2022-09-24T06:55:34.928Z,10.38
2022-09-24T06:58:04.573Z,10.43
2022-09-24T07:00:32.675Z,10.44
2022-09-24T07:03:02.195Z,10.51
2022-09-24T07:05:30.905Z,10.55
2022-09-24T07:07:58.961Z,10.60
2022-09-24T07:10:28.015Z,10.56
2022-09-24T07:12:56.137Z,10.56
2022-09-24T07:15:24.082Z,10.58
2022-09-24T07:17:56.088Z,10.74
2022-09-24T07:20:28.078Z,10.88
2022-09-24T07:22:56.281Z,10.99
2022-09-24T07:25:24.171Z,11.05
2022-09-24T07:27:52.067Z,11.16
2022-09-24T07:30:20.082Z,11.25
2022-09-24T07:32:50.583Z,11.31
2022-09-24T07:35:21.030Z,11.39
2022-09-24T07:37:50.402Z,11.45
2022-09-24T07:40:18.462Z,11.48
2022-09-24T07:42:49.432Z,11.55
2022-09-24T07:45:18.197Z,11.53
2022-09-24T07:47:46.152Z,11.61
2022-09-24T07:50:14.062Z,11.67
2022-09-24T07:52:41.951Z,11.74
2022-09-24T07:55:11.294Z,11.78
2022-09-24T07:57:39.809Z,11.85
2022-09-24T08:00:09.168Z,11.91
2022-09-24T08:02:40.031Z,11.94
2022-09-24T08:05:08.618Z,11.93
2022-09-24T08:07:36.590Z,11.98
2022-09-24T08:10:05.056Z,12.03
2022-09-24T08:12:34.590Z,12.08
2022-09-24T08:15:02.570Z,12.10
2022-09-24T08:17:30.451Z,12.13
2022-09-24T08:19:58.758Z,12.16
2022-09-24T08:22:26.681Z,12.19
2022-09-24T08:24:54.936Z,12.21
2022-09-24T08:27:24.112Z,12.22
2022-09-24T08:29:53.573Z,12.13
2022-09-24T08:32:21.488Z,12.24
2022-09-24T08:34:49.398Z,12.30
2022-09-24T08:37:17.237Z,12.37
2022-09-24T08:39:45.302Z,12.41
2022-09-24T08:42:20.347Z,12.47
2022-09-24T08:45:07.923Z,12.52
2022-09-24T08:47:38.975Z,12.55
2022-09-24T08:50:15.372Z,12.57
2022-09-24T08:53:00.985Z,12.61
2022-09-24T08:55:33.884Z,12.64
2022-09-24T08:58:09.859Z,12.72
2022-09-24T09:00:43.713Z,12.78
2022-09-24T09:03:18.636Z,12.84
2022-09-24T09:05:53.955Z,12.89
2022-09-24T09:11:23.207Z,12.87
2022-09-24T09:13:54.215Z,12.98
2022-09-24T09:16:24.933Z,13.05
2022-09-24T09:18:57.498Z,13.12
2022-09-24T09:21:29.822Z,13.15
2022-09-24T09:23:59.037Z,13.21
2022-09-24T09:26:27.294Z,13.25
2022-09-24T09:29:00.095Z,13.30
2022-09-24T09:31:36.821Z,13.37
2022-09-24T09:34:29.830Z,13.38
2022-09-24T09:37:07.529Z,13.27
2022-09-24T09:39:40.431Z,13.18
2022-09-24T09:42:26.496Z,13.24
2022-09-24T09:44:54.685Z,13.26
2022-09-24T09:47:26.452Z,13.37
2022-09-24T09:49:59.146Z,13.47
2022-09-24T09:52:29.842Z,13.56
2022-09-24T09:54:57.898Z,13.63
2022-09-24T09:57:26.432Z,13.68
2022-09-24T09:59:55.100Z,13.77
2022-09-24T10:02:25.759Z,13.63
2022-09-24T10:04:57.660Z,13.79
2022-09-24T10:07:25.788Z,13.85
2022-09-24T10:10:05.374Z,13.82
2022-09-24T10:12:33.280Z,13.94
2022-09-24T10:15:02.858Z,13.98
2022-09-24T10:17:35.684Z,14.06
2022-09-24T10:20:09.674Z,14.08
2022-09-24T10:22:39.346Z,14.10
2022-09-24T10:25:07.890Z,14.12
2022-09-24T10:27:37.765Z,14.13
2022-09-24T10:30:31.478Z,14.14
2022-09-24T10:33:00.312Z,14.18
2022-09-24T10:35:31.354Z,14.21
2022-09-24T10:38:01.241Z,14.22
2022-09-24T10:40:31.244Z,14.26
2022-09-24T10:43:01.373Z,14.27
2022-09-24T10:45:43.686Z,14.29
2022-09-24T10:48:18.857Z,14.31
2022-09-24T10:50:54.405Z,14.34
2022-09-24T10:53:31.850Z,14.37
2022-09-24T10:56:05.389Z,14.42
2022-09-24T10:59:00.762Z,14.35
2022-09-24T11:01:33.488Z,14.41
2022-09-24T11:04:20.959Z,14.47
2022-09-24T11:07:09.200Z,14.53
2022-09-24T11:09:43.849Z,14.58
2022-09-24T11:12:16.565Z,14.57
2022-09-24T11:14:56.544Z,14.62
2022-09-24T11:17:33.442Z,14.64
2022-09-24T11:20:17.632Z,14.62
2022-09-24T11:22:57.940Z,14.59
2022-09-24T11:25:32.891Z,14.50
2022-09-24T11:28:14.897Z,14.50
2022-09-24T11:30:48.811Z,14.25
2022-09-24T11:33:27.264Z,14.34
2022-09-24T11:36:06.548Z,14.51
2022-09-24T11:38:49.667Z,14.58
2022-09-24T11:41:27.922Z,14.58
2022-09-24T11:44:18.683Z,14.61
2022-09-24T11:46:56.638Z,14.61
2022-09-24T11:49:39.059Z,14.63
2022-09-24T11:52:10.431Z,14.66
2022-09-24T11:54:45.262Z,14.72
2022-09-24T11:57:17.156Z,14.73
2022-09-24T11:59:51.033Z,14.79
2022-09-24T12:02:23.825Z,14.83
2022-09-24T12:04:58.690Z,14.93
2022-09-24T12:07:31.539Z,14.98
2022-09-24T12:10:04.336Z,14.89
2022-09-24T12:12:34.598Z,14.90
2022-09-24T12:15:05.704Z,15.03
2022-09-24T12:17:37.494Z,15.08
2022-09-24T12:20:09.826Z,15.16
2022-09-24T12:22:39.396Z,15.22
2022-09-24T12:25:13.224Z,15.26
2022-09-24T12:27:41.253Z,15.31
2022-09-24T12:30:43.620Z,15.17
2022-09-24T12:33:16.088Z,15.18
2022-09-24T12:35:55.935Z,14.90
2022-09-24T12:38:26.767Z,15.05
2022-09-24T12:41:12.717Z,15.18
2022-09-24T12:43:43.764Z,15.27
2022-09-24T12:46:17.953Z,15.28
2022-09-24T12:48:46.974Z,15.25
2022-09-24T12:51:15.543Z,15.29
2022-09-24T12:53:45.059Z,15.29
2022-09-24T12:56:24.961Z,15.31
2022-09-24T12:58:53.324Z,15.30
2022-09-24T13:01:30.404Z,15.34
2022-09-24T13:04:06.324Z,15.28
2022-09-24T13:06:36.582Z,15.25
2022-09-24T13:09:25.647Z,15.31
2022-09-24T13:12:04.690Z,15.31
2022-09-24T13:14:33.842Z,15.35
2022-09-24T13:17:06.714Z,15.36
2022-09-24T13:19:40.973Z,15.30
2022-09-24T13:22:21.875Z,15.17
2022-09-24T13:24:51.751Z,15.20
2022-09-24T13:27:24.958Z,15.25
2022-09-24T13:30:06.970Z,15.23
2022-09-24T13:32:38.492Z,15.29
2022-09-24T13:35:12.333Z,15.27
2022-09-24T13:37:42.782Z,15.21
2022-09-24T13:40:19.495Z,15.25
2022-09-24T13:42:51.175Z,15.21
2022-09-24T13:45:21.548Z,15.29
2022-09-24T13:47:52.650Z,15.31
2022-09-24T13:50:23.718Z,15.35
2022-09-24T13:52:54.973Z,15.34
2022-09-24T13:55:24.357Z,15.39
2022-09-24T13:57:53.768Z,15.41
2022-09-24T14:00:24.458Z,15.44
2022-09-24T14:02:58.970Z,15.46
2022-09-24T14:05:27.579Z,15.47
2022-09-24T14:08:04.824Z,15.44
2022-09-24T14:10:33.037Z,15.44
2022-09-24T14:13:17.430Z,15.46
2022-09-24T14:15:56.223Z,15.48
2022-09-24T14:18:25.039Z,15.50
2022-09-24T14:20:57.832Z,15.46
2022-09-24T14:23:28.377Z,15.52
2022-09-24T14:25:56.984Z,15.52
2022-09-24T14:28:26.501Z,15.56
2022-09-24T14:30:56.295Z,15.58
2022-09-24T14:33:27.132Z,15.55
2022-09-24T14:35:56.383Z,15.55
2022-09-24T14:38:26.421Z,15.56
2022-09-24T14:40:56.979Z,15.58
2022-09-24T14:43:31.428Z,15.57
2022-09-24T14:46:04.421Z,15.56
2022-09-24T14:48:33.721Z,15.59
2022-09-24T14:51:02.089Z,15.47
2022-09-24T14:53:34.220Z,15.34
2022-09-24T14:56:03.504Z,15.43
2022-09-24T14:58:37.300Z,15.50
2022-09-24T15:01:08.194Z,15.48
2022-09-24T15:03:40.893Z,15.54
2022-09-24T15:06:19.357Z,15.58
2022-09-24T15:08:54.085Z,15.49
2022-09-24T15:11:27.708Z,15.56
2022-09-24T15:14:01.683Z,15.57
2022-09-24T15:16:32.027Z,15.55
2022-09-24T15:19:11.134Z,15.52
2022-09-24T15:21:39.040Z,15.59
2022-09-24T15:24:07.172Z,15.64
2022-09-24T15:26:37.322Z,15.64
2022-09-24T15:29:07.470Z,15.67
2022-09-24T15:31:35.473Z,15.70
2022-09-24T15:34:03.485Z,15.69
2022-09-24T15:36:31.415Z,15.67
2022-09-24T15:39:02.139Z,15.42
2022-09-24T15:41:30.031Z,15.52
2022-09-24T15:43:59.003Z,15.57
2022-09-24T15:46:28.336Z,15.59
2022-09-24T15:48:56.246Z,15.61
2022-09-24T15:51:24.600Z,15.59
2022-09-24T15:53:52.571Z,15.59
2022-09-24T15:56:20.473Z,15.60
2022-09-24T15:58:48.379Z,15.59
2022-09-24T16:01:19.218Z,15.60
2022-09-24T16:03:48.637Z,15.59
2022-09-24T16:06:16.604Z,15.58
2022-09-24T16:08:44.523Z,15.57
2022-09-24T16:11:12.453Z,15.55
2022-09-24T16:13:40.451Z,15.52
2022-09-24T16:16:08.974Z,15.50
2022-09-24T16:18:39.766Z,15.42
2022-09-24T16:21:09.551Z,15.42
2022-09-24T16:23:37.480Z,15.39
2022-09-24T16:26:05.708Z,15.38
2022-09-24T16:28:33.640Z,15.36
2022-09-24T16:31:06.342Z,15.33
2022-09-24T16:33:38.852Z,15.31
2022-09-24T16:36:07.294Z,15.30
2022-09-24T16:38:37.412Z,15.28
2022-09-24T16:41:06.126Z,15.27
2022-09-24T16:43:34.231Z,15.24
2022-09-24T16:46:03.656Z,15.19
2022-09-24T16:48:31.933Z,15.18
2022-09-24T16:51:04.256Z,15.17
2022-09-24T16:53:34.143Z,15.15
2022-09-24T16:56:08.396Z,15.13
2022-09-24T16:58:36.613Z,15.12
2022-09-24T17:01:06.071Z,15.08
2022-09-24T17:03:34.223Z,15.07
2022-09-24T17:06:02.473Z,15.04
2022-09-24T17:08:45.947Z,15.00
2022-09-24T17:11:16.300Z,14.96
2022-09-24T17:13:44.500Z,14.93
2022-09-24T17:16:12.522Z,14.92
2022-09-24T17:18:40.618Z,14.89
2022-09-24T17:21:11.163Z,14.85
2022-09-24T17:23:39.889Z,14.83
2022-09-24T17:26:11.504Z,14.80
2022-09-24T17:28:42.125Z,14.79
2022-09-24T17:31:11.159Z,14.73
2022-09-24T17:33:43.267Z,14.72
2022-09-24T17:36:14.247Z,14.63
2022-09-24T17:38:43.000Z,14.65
2022-09-24T17:41:13.131Z,14.65
2022-09-24T17:43:43.072Z,14.66
2022-09-24T17:46:14.418Z,14.63
2022-09-24T17:48:44.508Z,14.63
2022-09-24T17:51:15.032Z,14.62
2022-09-24T17:53:43.238Z,14.59
2022-09-24T17:56:12.632Z,14.58
2022-09-24T17:58:43.775Z,14.58
2022-09-24T18:01:13.580Z,14.56
2022-09-24T18:03:42.044Z,14.56
2022-09-24T18:06:13.681Z,14.55
2022-09-24T18:08:42.988Z,14.54
2022-09-24T18:11:12.664Z,14.53
2022-09-24T18:13:42.315Z,14.51
2022-09-24T18:16:12.662Z,14.50
2022-09-24T18:18:41.021Z,14.50
2022-09-24T18:21:11.093Z,14.49
2022-09-24T18:23:39.463Z,14.49
2022-09-24T18:26:10.537Z,14.48
2022-09-24T18:28:39.741Z,14.48
2022-09-24T18:31:10.391Z,14.48
2022-09-24T18:33:40.137Z,14.45
2022-09-24T18:36:10.932Z,14.44
2022-09-24T18:38:39.220Z,14.43
2022-09-24T18:41:09.449Z,14.43
2022-09-24T18:43:37.541Z,14.41
2022-09-24T18:46:31.750Z,14.40
2022-09-24T18:49:00.645Z,14.40
2022-09-24T18:51:29.738Z,14.39
2022-09-24T18:53:59.064Z,14.36
2022-09-24T18:56:27.911Z,14.36
2022-09-24T18:58:56.990Z,14.35
2022-09-24T19:01:25.378Z,14.34
2022-09-24T19:03:55.074Z,14.34
2022-09-24T19:06:23.167Z,14.34
2022-09-24T19:08:51.109Z,14.34
2022-09-24T19:11:19.104Z,14.28
2022-09-24T19:13:49.920Z,14.30
2022-09-24T19:16:19.085Z,14.30
2022-09-24T19:18:47.226Z,14.30
2022-09-24T19:21:16.507Z,14.29
2022-09-24T19:23:46.328Z,14.29
2022-09-24T19:26:16.140Z,14.28
2022-09-24T19:28:45.386Z,14.28
2022-09-24T19:31:14.719Z,14.26
2022-09-24T19:33:42.759Z,14.19
2022-09-24T19:36:11.814Z,14.15
2022-09-24T19:38:42.286Z,14.13
2022-09-24T19:41:13.419Z,14.16
2022-09-24T19:43:43.650Z,14.15
2022-09-24T19:46:14.578Z,14.16
2022-09-24T19:48:44.203Z,14.17
2022-09-24T19:51:15.115Z,14.13
2022-09-24T19:53:44.688Z,14.12
2022-09-24T19:56:13.013Z,14.11
2022-09-24T19:58:41.271Z,14.10
2022-09-24T20:01:13.684Z,14.11
2022-09-24T20:03:44.865Z,14.11
2022-09-24T20:06:18.110Z,14.10
2022-09-24T20:08:48.675Z,14.10
2022-09-24T20:11:20.645Z,14.07
2022-09-24T20:13:48.982Z,14.04
2022-09-24T20:16:19.688Z,14.04
2022-09-24T20:18:48.164Z,14.05
2022-09-24T20:21:18.342Z,14.06
2022-09-24T20:23:48.327Z,14.06
2022-09-24T20:26:34.938Z,14.05
2022-09-24T20:29:03.602Z,14.05
2022-09-24T20:31:31.663Z,14.01
2022-09-24T20:34:00.880Z,14.01
2022-09-24T20:36:29.060Z,14.00
2022-09-24T20:38:58.840Z,13.99
2022-09-24T20:41:27.231Z,13.98
2022-09-24T20:43:56.390Z,13.97
2022-09-24T20:46:25.501Z,13.95
2022-09-24T20:48:53.943Z,13.90
2022-09-24T20:51:22.765Z,13.86
2022-09-24T20:53:51.101Z,13.84
2022-09-24T20:56:21.158Z,13.85
2022-09-24T20:58:50.299Z,13.86
2022-09-24T21:01:18.683Z,13.86
2022-09-24T21:03:49.874Z,13.88
2022-09-24T21:06:20.735Z,13.86
2022-09-24T21:08:48.725Z,13.86
2022-09-24T21:11:19.038Z,13.86
2022-09-24T21:13:50.210Z,13.86
2022-09-24T21:16:19.836Z,13.85
2022-09-24T21:18:48.555Z,13.84
2022-09-24T21:21:17.871Z,13.83
2022-09-24T21:23:47.008Z,13.83
2022-09-24T21:26:16.707Z,13.84
2022-09-24T21:28:45.311Z,13.84
2022-09-24T21:31:15.330Z,13.83
2022-09-24T21:33:46.287Z,13.82
2022-09-24T21:36:18.611Z,13.83
2022-09-24T21:38:47.074Z,13.79
2022-09-24T21:41:15.013Z,13.79
2022-09-24T21:43:42.944Z,13.77
2022-09-24T21:46:11.139Z,13.77
2022-09-24T21:48:40.518Z,13.75
2022-09-24T21:51:09.886Z,13.74
2022-09-24T21:53:38.831Z,13.69
2022-09-24T21:56:07.396Z,13.72
2022-09-24T21:58:35.354Z,13.71
2022-09-24T22:01:05.285Z,13.70
2022-09-24T22:03:33.499Z,13.71
2022-09-24T22:06:04.926Z,13.72
2022-09-24T22:08:33.018Z,13.73
2022-09-24T22:11:02.512Z,13.73
2022-09-24T22:13:31.014Z,13.73
2022-09-24T22:15:59.857Z,13.66
2022-09-24T22:18:28.739Z,13.69
2022-09-24T22:20:57.482Z,13.68
2022-09-24T22:23:26.881Z,13.68
2022-09-24T22:25:56.273Z,13.69
2022-09-24T22:28:25.257Z,13.70
2022-09-24T22:30:53.949Z,13.69
2022-09-24T22:33:40.027Z,13.69
2022-09-24T22:36:08.341Z,13.69
2022-09-24T22:38:37.876Z,13.70
2022-09-24T22:41:10.780Z,13.70
2022-09-24T22:43:39.168Z,13.69
2022-09-24T22:46:09.195Z,13.69
2022-09-24T22:48:37.282Z,13.66
2022-09-24T22:51:06.463Z,13.64
2022-09-24T22:53:35.121Z,13.67
2022-09-24T22:56:05.587Z,13.68
2022-09-24T22:58:33.977Z,13.69
2022-09-24T23:01:08.633Z,13.68
2022-09-24T23:03:36.903Z,13.71
2022-09-24T23:06:06.133Z,13.71
2022-09-24T23:08:34.677Z,13.71
2022-09-24T23:11:08.944Z,13.70
2022-09-24T23:13:38.112Z,13.70
2022-09-24T23:16:11.668Z,13.70
2022-09-24T23:18:39.946Z,13.70
2022-09-24T23:21:09.068Z,13.69
2022-09-24T23:23:37.215Z,13.71
2022-09-24T23:26:07.123Z,13.73
2022-09-24T23:28:37.158Z,13.72
2022-09-24T23:31:05.571Z,13.72
2022-09-24T23:33:34.396Z,13.73
2022-09-24T23:36:03.150Z,13.74
2022-09-24T23:38:31.285Z,13.74
2022-09-24T23:41:00.728Z,13.74
2022-09-24T23:43:29.245Z,13.74
2022-09-24T23:45:58.699Z,13.75
2022-09-24T23:48:27.148Z,13.75
2022-09-24T23:50:55.533Z,13.74
2022-09-24T23:53:23.541Z,13.76
2022-09-24T23:55:53.919Z,13.76
2022-09-24T23:58:25.195Z,13.76
